Time;durP1;ratioP1;P1;durP2;ratioP2;P2;SDS_P1;SDS_P2;PMS_P1;PMS_P2;Temp;Humidity;BMP_temperature;BMP_pressure;BME280_temperature;BME280_humidity;BME280_pressure;Samples;Min_cycle;Max_cycle;Signal;HPM_P1;HPM_P2
2021/04/05 00:02:05;;;;;;;;;;;7.60;72.30;;;;;;4277700;33;20004;-78
2021/04/05 00:04:37;;;;;;;;;;;7.70;72.40;;;;;;4277231;33;19998;-78
2021/04/05 00:07:10;;;;;;;;;;;7.70;72.50;;;;;;4277027;33;19999;-78
2021/04/05 00:09:46;;;;;;;;;;;7.60;72.60;;;;;;4276552;33;41253;-78
2021/04/05 00:12:19;;;;;;;;;;;7.60;72.70;;;;;;4288426;33;39068;-78
2021/04/05 00:14:48;;;;;;;;;;;7.60;72.80;;;;;;4287928;33;41930;-78
2021/04/05 00:17:27;;;;;;;;;;;7.60;72.90;;;;;;4302227;33;20069;-78
2021/04/05 00:19:59;;;;;;;;;;;7.60;73.00;;;;;;4301610;33;41548;-78
2021/04/05 00:22:31;;;;;;;;;;;7.60;73.20;;;;;;4278178;33;30533;-78
2021/04/05 00:25:09;;;;;;;;;;;7.50;73.40;;;;;;4279518;33;35565;-78
2021/04/05 00:27:41;;;;;;;;;;;7.50;74.20;;;;;;4291282;33;36401;-78
2021/04/05 00:30:18;;;;;;;;;;;7.50;73.30;;;;;;4292223;33;20521;-78
2021/04/05 00:32:51;;;;;;;;;;;7.50;73.30;;;;;;4279921;33;20044;-78
2021/04/05 00:35:26;;;;;;;;;;;7.60;73.30;;;;;;4291842;33;20003;-78
2021/04/05 00:38:01;;;;;;;;;;;7.50;73.20;;;;;;4292158;33;20062;-78
2021/04/05 00:40:50;;;;;;;;;;;7.50;73.40;;;;;;4292117;33;20062;-78
2021/04/05 00:43:23;;;;;;;;;;;7.50;73.50;;;;;;4290952;33;43601;-78
2021/04/05 00:45:58;;;;;;;;;;;7.50;73.60;;;;;;4291518;33;22615;-78
2021/04/05 00:48:28;;;;;;;;;;;7.50;73.60;;;;;;4303745;33;44979;-78
2021/04/05 00:51:02;;;;;;;;;;;7.50;73.60;;;;;;4291880;33;20074;-78
2021/04/05 00:53:38;;;;;;;;;;;7.50;73.60;;;;;;4279664;33;20009;-78
2021/04/05 00:56:13;;;;;;;;;;;7.50;73.50;;;;;;4278619;33;36175;-77
2021/04/05 00:58:43;;;;;;;;;;;7.50;73.50;;;;;;4291067;33;28467;-78
2021/04/05 01:01:20;;;;;;;;;;;7.60;73.90;;;;;;4304770;33;20066;-78
2021/04/05 01:03:52;;;;;;;;;;;7.60;73.50;;;;;;4291420;33;20016;-78
2021/04/05 01:06:32;;;;;;;;;;;7.60;73.50;;;;;;4291434;33;20022;-78
2021/04/05 01:08:59;;;;;;;;;;;7.50;73.50;;;;;;4290330;33;39860;-78
2021/04/05 01:11:34;;;;;;;;;;;7.50;74.40;;;;;;4278386;33;44662;-78
2021/04/05 01:14:09;;;;;;;;;;;7.50;73.70;;;;;;4291487;33;20009;-78
2021/04/05 01:16:41;;;;;;;;;;;7.50;73.80;;;;;;4304381;33;20046;-78
2021/04/05 01:19:18;;;;;;;;;;;7.50;73.90;;;;;;4290461;33;33787;-78
2021/04/05 01:21:53;;;;;;;;;;;7.50;74.00;;;;;;4291319;33;20016;-78
2021/04/05 01:24:28;;;;;;;;;;;7.50;74.30;;;;;;4289995;33;37157;-78
2021/04/05 01:27:01;;;;;;;;;;;7.40;74.30;;;;;;4290020;33;41214;-78
2021/04/05 01:29:30;;;;;;;;;;;7.40;74.60;;;;;;4303645;33;34300;-78
2021/04/05 01:32:02;;;;;;;;;;;7.40;74.50;;;;;;4304402;33;20006;-78
2021/04/05 01:34:36;;;;;;;;;;;7.40;74.50;;;;;;4289697;33;26219;-78
2021/04/05 01:37:13;;;;;;;;;;;7.40;74.60;;;;;;4291089;33;20567;-78
2021/04/05 01:39:43;;;;;;;;;;;7.40;74.60;;;;;;4279095;33;20468;-77
2021/04/05 01:42:21;;;;;;;;;;;7.40;74.70;;;;;;4290102;33;35155;-78
2021/04/05 01:44:57;;;;;;;;;;;7.40;74.70;;;;;;4290718;33;20135;-78
2021/04/05 01:47:34;;;;;;;;;;;7.40;74.90;;;;;;4290464;33;23609;-78
2021/04/05 01:50:09;;;;;;;;;;;7.40;74.90;;;;;;4278027;33;32719;-77
2021/04/05 01:52:46;;;;;;;;;;;7.40;75.10;;;;;;4290290;33;23509;-78
2021/04/05 01:55:28;;;;;;;;;;;7.40;75.20;;;;;;4291274;33;20010;-78
2021/04/05 01:58:04;;;;;;;;;;;7.40;75.40;;;;;;4278252;33;24740;-78
2021/04/05 02:00:33;;;;;;;;;;;7.30;75.30;;;;;;4303576;33;21287;-78
2021/04/05 02:03:07;;;;;;;;;;;7.30;75.60;;;;;;4289697;33;30283;-78
2021/04/05 02:05:37;;;;;;;;;;;7.30;75.60;;;;;;4277606;33;41091;-78
2021/04/05 02:08:12;;;;;;;;;;;7.30;75.70;;;;;;4289866;33;35836;-78
2021/04/05 02:10:42;;;;;;;;;;;7.30;75.80;;;;;;4291042;33;20058;-78
2021/04/05 02:13:17;;;;;;;;;;;7.30;75.90;;;;;;4290410;33;20026;-78
2021/04/05 02:15:52;;;;;;;;;;;7.30;76.00;;;;;;4278690;33;20002;-78
2021/04/05 02:18:23;;;;;;;;;;;7.30;75.90;;;;;;4289521;33;35877;-78
2021/04/05 02:21:05;;;;;;;;;;;7.30;75.90;;;;;;4278935;33;20452;-78
2021/04/05 02:23:38;;;;;;;;;;;7.30;76.00;;;;;;4289438;33;32474;-78
2021/04/05 02:26:11;;;;;;;;;;;7.20;75.90;;;;;;4277097;33;46930;-78
2021/04/05 02:28:47;;;;;;;;;;;7.20;76.00;;;;;;4289751;33;20065;-78
2021/04/05 02:31:22;;;;;;;;;;;7.30;76.10;;;;;;4290251;33;20437;-78
2021/04/05 02:34:00;;;;;;;;;;;7.20;76.10;;;;;;4278575;33;20004;-78
2021/04/05 02:36:39;;;;;;;;;;;7.20;76.20;;;;;;4290748;33;20018;-78
2021/04/05 02:39:12;;;;;;;;;;;7.20;76.30;;;;;;4278224;33;20393;-78
2021/04/05 02:41:50;;;;;;;;;;;7.10;76.20;;;;;;4290237;33;20073;-78
2021/04/05 02:44:20;;;;;;;;;;;7.10;76.30;;;;;;4290184;33;20010;-78
2021/04/05 02:46:55;;;;;;;;;;;7.10;76.30;;;;;;4290056;33;20009;-78
2021/04/05 02:49:31;;;;;;;;;;;7.10;76.40;;;;;;4289121;33;39701;-78
2021/04/05 02:52:03;;;;;;;;;;;7.10;76.40;;;;;;4288673;33;41947;-78
2021/04/05 02:54:39;;;;;;;;;;;7.10;76.30;;;;;;4276928;33;47127;-78
2021/04/05 02:57:09;;;;;;;;;;;7.10;76.60;;;;;;4302143;33;35655;-78
2021/04/05 02:59:38;;;;;;;;;;;7.10;76.60;;;;;;4289338;33;22201;-78
2021/04/05 03:02:11;;;;;;;;;;;7.10;76.50;;;;;;4278040;33;20434;-78
2021/04/05 03:04:41;;;;;;;;;;;7.10;76.60;;;;;;4289731;33;20387;-78
2021/04/05 03:07:18;;;;;;;;;;;7.10;76.60;;;;;;4278331;33;20002;-78
2021/04/05 03:09:54;;;;;;;;;;;7.10;76.80;;;;;;4288972;33;42632;-78
2021/04/05 03:12:30;;;;;;;;;;;7.10;76.90;;;;;;4289001;33;36101;-78
2021/04/05 03:15:04;;;;;;;;;;;7.10;76.70;;;;;;4301816;33;37889;-78
2021/04/05 03:17:37;;;;;;;;;;;7.10;77.00;;;;;;4276646;33;41767;-78
2021/04/05 03:20:07;;;;;;;;;;;7.10;77.20;;;;;;4302211;33;20024;-78
2021/04/05 03:22:34;;;;;;;;;;;7.00;77.10;;;;;;4302396;33;20022;-78
2021/04/05 03:25:06;;;;;;;;;;;7.00;77.20;;;;;;4288768;33;40489;-78
2021/04/05 03:27:39;;;;;;;;;;;7.00;77.10;;;;;;4288587;33;36403;-78
2021/04/05 03:30:10;;;;;;;;;;;7.00;77.30;;;;;;4301679;33;41280;-78
2021/04/05 03:32:43;;;;;;;;;;;7.00;77.30;;;;;;4302934;33;20014;-78
2021/04/05 03:35:18;;;;;;;;;;;7.00;77.50;;;;;;4278045;33;20053;-77
2021/04/05 03:37:59;;;;;;;;;;;7.00;77.30;;;;;;4290398;33;20053;-77
2021/04/05 03:40:29;;;;;;;;;;;7.00;77.40;;;;;;4289938;33;20144;-77
2021/04/05 03:43:08;;;;;;;;;;;6.90;77.40;;;;;;4290080;33;20020;-77
2021/04/05 03:46:01;;;;;;;;;;;7.00;77.50;;;;;;4289286;33;20034;-77
2021/04/05 03:48:37;;;;;;;;;;;7.00;77.50;;;;;;4287499;33;20002;-77
2021/04/05 03:51:13;;;;;;;;;;;6.90;77.50;;;;;;4277985;33;20014;-77
2021/04/05 03:53:57;;;;;;;;;;;7.00;77.70;;;;;;4277465;33;20002;-78
2021/04/05 03:56:44;;;;;;;;;;;7.00;77.70;;;;;;4303018;33;20058;-78
2021/04/05 03:59:14;;;;;;;;;;;7.00;77.70;;;;;;4290804;33;41837;-78
2021/04/05 04:01:52;;;;;;;;;;;7.00;77.80;;;;;;4279890;33;19999;-78
2021/04/05 04:04:28;;;;;;;;;;;7.00;77.70;;;;;;4304907;33;25984;-79
2021/04/05 04:09:40;;;;;;;;;;;7.00;78.00;;;;;;4305566;33;20018;-78
2021/04/05 04:12:17;;;;;;;;;;;7.00;78.10;;;;;;4293155;33;20487;-78
2021/04/05 04:14:54;;;;;;;;;;;7.00;78.20;;;;;;4292118;33;20321;-78
2021/04/05 04:17:26;;;;;;;;;;;6.90;78.20;;;;;;4291293;33;29621;-78
2021/04/05 04:20:03;;;;;;;;;;;6.90;78.80;;;;;;4279035;33;36186;-78
2021/04/05 04:22:36;;;;;;;;;;;6.90;78.70;;;;;;4278134;33;41364;-78
2021/04/05 04:25:11;;;;;;;;;;;6.90;78.90;;;;;;4280359;33;20021;-78
2021/04/05 04:27:55;;;;;;;;;;;6.90;78.90;;;;;;4280242;33;20355;-77
2021/04/05 04:30:36;;;;;;;;;;;6.90;79.20;;;;;;4291954;33;20006;-78
2021/04/05 04:33:11;;;;;;;;;;;6.90;79.20;;;;;;4292310;33;20003;-78
2021/04/05 04:35:48;;;;;;;;;;;6.90;79.30;;;;;;4292283;33;20018;-78
2021/04/05 04:38:22;;;;;;;;;;;6.90;79.50;;;;;;4292115;33;20077;-78
2021/04/05 04:40:57;;;;;;;;;;;6.90;79.50;;;;;;4292070;33;20459;-78
2021/04/05 04:43:42;;;;;;;;;;;6.90;79.50;;;;;;4292723;33;20460;-78
2021/04/05 04:46:15;;;;;;;;;;;6.90;80.10;;;;;;4279854;33;20478;-78
2021/04/05 04:49:00;;;;;;;;;;;6.80;80.10;;;;;;4292252;33;20014;-78
2021/04/05 04:51:33;;;;;;;;;;;6.80;80.40;;;;;;4279711;33;19995;-78
2021/04/05 04:54:12;;;;;;;;;;;6.80;80.20;;;;;;4291882;33;20070;-78
2021/04/05 04:56:47;;;;;;;;;;;6.80;80.10;;;;;;4304707;33;20152;-78
2021/04/05 04:59:24;;;;;;;;;;;6.80;80.20;;;;;;4291862;33;20029;-78
2021/04/05 05:01:55;;;;;;;;;;;6.90;80.30;;;;;;4279707;33;20441;-78
2021/04/05 05:04:44;;;;;;;;;;;6.90;80.50;;;;;;4304801;33;20385;-78
2021/04/05 05:07:19;;;;;;;;;;;6.90;80.90;;;;;;4291736;33;20058;-78
2021/04/05 05:10:00;;;;;;;;;;;6.90;80.60;;;;;;4279855;33;20006;-78
2021/04/05 05:12:35;;;;;;;;;;;6.90;80.80;;;;;;4291732;33;20026;-78
2021/04/05 05:15:14;;;;;;;;;;;6.90;81.00;;;;;;4291488;33;20022;-78
2021/04/05 05:17:44;;;;;;;;;;;6.90;80.90;;;;;;4280227;33;20018;-78
2021/04/05 05:20:15;;;;;;;;;;;6.90;80.80;;;;;;4318571;33;20039;-78
2021/04/05 05:23:01;;;;;;;;;;;6.90;81.30;;;;;;4295001;33;19999;-78
2021/04/05 05:25:30;;;;;;;;;;;6.90;81.20;;;;;;4305427;33;20077;-78
2021/04/05 05:28:07;;;;;;;;;;;6.90;81.10;;;;;;4318477;33;20081;-78
2021/04/05 05:30:36;;;;;;;;;;;6.90;81.30;;;;;;4318275;33;20005;-78
2021/04/05 05:33:07;;;;;;;;;;;6.90;81.50;;;;;;4318804;33;20086;-78
2021/04/05 05:35:37;;;;;;;;;;;6.90;81.50;;;;;;4305462;33;20023;-78
2021/04/05 05:38:05;;;;;;;;;;;6.90;81.20;;;;;;4318393;33;20422;-78
2021/04/05 05:40:42;;;;;;;;;;;6.90;81.50;;;;;;4318429;33;20039;-78
2021/04/05 05:43:20;;;;;;;;;;;6.90;81.60;;;;;;4293464;33;19998;-78
2021/04/05 05:45:54;;;;;;;;;;;7.00;81.70;;;;;;4318504;33;20093;-78
2021/04/05 05:48:25;;;;;;;;;;;6.90;82.00;;;;;;4304660;33;37447;-78
2021/04/05 05:50:58;;;;;;;;;;;6.90;81.80;;;;;;4304114;33;42865;-78
2021/04/05 05:53:48;;;;;;;;;;;6.90;81.90;;;;;;4317320;33;33771;-79
2021/04/05 05:56:15;;;;;;;;;;;6.90;82.10;;;;;;4290697;33;37340;-78
2021/04/05 05:58:44;;;;;;;;;;;6.90;82.70;;;;;;4316809;33;40051;-78
2021/04/05 06:01:25;;;;;;;;;;;6.90;82.90;;;;;;4305527;33;20024;-78
2021/04/05 06:04:29;;;;;;;;;;;6.90;82.80;;;;;;4305703;33;20363;-78
2021/04/05 06:07:17;;;;;;;;;;;6.90;82.50;;;;;;4304823;33;20001;-78
2021/04/05 06:10:03;;;;;;;;;;;7.00;82.80;;;;;;4305291;33;20329;-79
2021/04/05 06:12:55;;;;;;;;;;;7.00;82.90;;;;;;4305095;33;20041;-78
2021/04/05 06:15:25;;;;;;;;;;;7.00;83.10;;;;;;4318418;33;20024;-79
2021/04/05 06:18:07;;;;;;;;;;;7.00;83.00;;;;;;4317505;33;20018;-78
2021/04/05 06:20:37;;;;;;;;;;;7.00;82.70;;;;;;4305053;33;20010;-79
2021/04/05 06:23:11;;;;;;;;;;;7.10;83.00;;;;;;4291427;33;40439;-78
2021/04/05 06:25:57;;;;;;;;;;;7.10;82.90;;;;;;4304988;33;20058;-78
2021/04/05 06:28:33;;;;;;;;;;;7.10;82.90;;;;;;4305065;33;20014;-78
2021/04/05 06:31:12;;;;;;;;;;;7.10;83.20;;;;;;4317901;33;20014;-79
2021/04/05 06:33:45;;;;;;;;;;;7.10;83.30;;;;;;4292008;33;20005;-79
2021/04/05 06:36:20;;;;;;;;;;;7.10;83.30;;;;;;4304744;33;20001;-79
2021/04/05 06:39:04;;;;;;;;;;;7.10;83.60;;;;;;4317831;33;20069;-79
2021/04/05 06:41:33;;;;;;;;;;;7.20;83.60;;;;;;4318015;33;20005;-79
2021/04/05 06:44:12;;;;;;;;;;;7.20;84.00;;;;;;4292159;33;20010;-79
2021/04/05 06:46:55;;;;;;;;;;;7.20;83.50;;;;;;4292188;33;20726;-79
2021/04/05 06:50:07;;;;;;;;;;;7.20;83.50;;;;;;4292239;33;20041;-79
2021/04/05 06:53:08;;;;;;;;;;;7.20;83.30;;;;;;4301855;33;20012;-79
2021/04/05 06:55:44;;;;;;;;;;;7.20;83.70;;;;;;4292878;33;20025;-78
2021/04/05 06:58:28;;;;;;;;;;;7.30;83.60;;;;;;4304184;33;20028;-78
2021/04/05 07:00:55;;;;;;;;;;;7.30;84.00;;;;;;4304096;33;20013;-78
2021/04/05 07:03:24;;;;;;;;;;;7.30;84.00;;;;;;4317305;33;20018;-79
2021/04/05 07:05:54;;;;;;;;;;;7.30;84.10;;;;;;4303266;33;42711;-78
2021/04/05 07:08:26;;;;;;;;;;;7.30;84.20;;;;;;4316645;33;20052;-79
2021/04/05 07:10:59;;;;;;;;;;;7.30;84.30;;;;;;4303877;33;20363;-78
2021/04/05 07:13:44;;;;;;;;;;;7.30;84.10;;;;;;4304161;33;20100;-78
2021/04/05 07:16:17;;;;;;;;;;;7.40;84.00;;;;;;4303055;33;40057;-78
2021/04/05 07:18:51;;;;;;;;;;;7.40;84.00;;;;;;4317517;33;20437;-78
2021/04/05 07:21:23;;;;;;;;;;;7.40;84.00;;;;;;4317157;33;20442;-78
2021/04/05 07:24:03;;;;;;;;;;;7.40;84.50;;;;;;4317588;33;20100;-78
2021/04/05 07:26:42;;;;;;;;;;;7.50;84.00;;;;;;4291904;33;20068;-78
2021/04/05 07:29:11;;;;;;;;;;;7.50;84.10;;;;;;4317642;33;20490;-78
2021/04/05 07:31:58;;;;;;;;;;;7.50;83.90;;;;;;4304170;33;20014;-78
2021/04/05 07:34:41;;;;;;;;;;;7.50;84.10;;;;;;4316920;33;20077;-78
2021/04/05 07:37:42;;;;;;;;;;;7.50;83.80;;;;;;4292550;33;20040;-78
2021/04/05 07:40:31;;;;;;;;;;;7.60;83.90;;;;;;4304580;33;20028;-78
2021/04/05 07:43:12;;;;;;;;;;;7.60;84.00;;;;;;4304980;33;20023;-78
2021/04/05 07:45:53;;;;;;;;;;;7.60;84.30;;;;;;4317077;33;20010;-78
2021/04/05 07:48:33;;;;;;;;;;;7.60;84.70;;;;;;4304303;33;20159;-78
2021/04/05 07:51:29;;;;;;;;;;;7.60;84.70;;;;;;4304604;33;20006;-78
2021/04/05 07:54:12;;;;;;;;;;;7.70;84.70;;;;;;4304688;33;20006;-78
2021/04/05 07:56:54;;;;;;;;;;;7.70;84.90;;;;;;4304031;33;20002;-78
2021/04/05 07:59:41;;;;;;;;;;;7.70;84.70;;;;;;4304448;33;20047;-78
2021/04/05 08:02:14;;;;;;;;;;;7.70;84.70;;;;;;4303111;33;35311;-78
2021/04/05 08:05:00;;;;;;;;;;;7.70;84.70;;;;;;4303646;33;20009;-78
2021/04/05 08:07:47;;;;;;;;;;;7.70;84.70;;;;;;4302926;33;43647;-78
2021/04/05 08:10:29;;;;;;;;;;;7.80;84.80;;;;;;4302842;33;32601;-78
2021/04/05 08:13:09;;;;;;;;;;;7.80;85.10;;;;;;4303145;33;30556;-79
2021/04/05 08:15:40;;;;;;;;;;;7.80;85.50;;;;;;4302157;33;43847;-79
2021/04/05 08:18:29;;;;;;;;;;;7.80;85.70;;;;;;4304328;33;20152;-79
2021/04/05 08:21:14;;;;;;;;;;;7.80;85.40;;;;;;4304257;33;20016;-80
2021/04/05 08:23:55;;;;;;;;;;;7.80;85.10;;;;;;4316714;33;20044;-78
2021/04/05 08:26:38;;;;;;;;;;;7.80;85.10;;;;;;4304200;33;20077;-79
2021/04/05 08:29:21;;;;;;;;;;;7.80;84.90;;;;;;4303923;33;20148;-79
2021/04/05 08:32:01;;;;;;;;;;;7.80;84.80;;;;;;4303948;33;20428;-78
2021/04/05 08:34:36;;;;;;;;;;;7.80;84.90;;;;;;4303241;33;20012;-79
2021/04/05 08:37:13;;;;;;;;;;;7.80;85.00;;;;;;4316974;33;20014;-79
2021/04/05 08:40:00;;;;;;;;;;;7.80;84.70;;;;;;4317032;33;20133;-79
2021/04/05 08:42:40;;;;;;;;;;;7.80;84.60;;;;;;4304399;33;20468;-78
2021/04/05 08:45:20;;;;;;;;;;;7.80;84.30;;;;;;4306681;33;20020;-79
2021/04/05 08:47:56;;;;;;;;;;;7.80;84.10;;;;;;4319431;33;20058;-78
2021/04/05 08:50:38;;;;;;;;;;;7.80;83.90;;;;;;4306811;33;20028;-78
2021/04/05 08:53:25;;;;;;;;;;;7.70;83.70;;;;;;4307345;33;20010;-78
2021/04/05 08:56:08;;;;;;;;;;;7.80;83.80;;;;;;4306632;33;20065;-78
2021/04/05 08:58:52;;;;;;;;;;;7.70;83.60;;;;;;4306460;33;20020;-78
2021/04/05 09:01:44;;;;;;;;;;;7.70;83.40;;;;;;4306653;33;20057;-78
2021/04/05 09:04:20;;;;;;;;;;;7.80;83.30;;;;;;4293479;33;20033;-78
2021/04/05 09:07:11;;;;;;;;;;;7.80;83.20;;;;;;4294036;33;20109;-78
2021/04/05 09:09:46;;;;;;;;;;;7.80;83.20;;;;;;4306054;33;20014;-78
2021/04/05 09:12:25;;;;;;;;;;;7.80;83.20;;;;;;4301369;33;20057;-78
2021/04/05 09:15:12;;;;;;;;;;;7.80;83.20;;;;;;4318687;33;20036;-78
2021/04/05 09:18:03;;;;;;;;;;;7.80;83.20;;;;;;4306329;33;20039;-78
2021/04/05 09:20:52;;;;;;;;;;;7.80;83.00;;;;;;4319188;33;20438;-77
2021/04/05 09:23:38;;;;;;;;;;;7.80;83.00;;;;;;4300401;33;20343;-77
2021/04/05 09:26:37;;;;;;;;;;;7.70;83.10;;;;;;4318818;33;20048;-78
2021/04/05 09:29:22;;;;;;;;;;;7.70;82.90;;;;;;4306071;33;20029;-78
2021/04/05 09:32:10;;;;;;;;;;;7.80;82.80;;;;;;4293601;33;20053;-77
2021/04/05 09:34:56;;;;;;;;;;;7.80;82.80;;;;;;4318851;33;20001;-78
2021/04/05 09:38:03;;;;;;;;;;;7.80;82.60;;;;;;4319031;33;20017;-78
2021/04/05 09:40:35;;;;;;;;;;;7.80;82.40;;;;;;4287851;33;20120;-79
2021/04/05 09:43:17;;;;;;;;;;;7.80;82.40;;;;;;4275374;33;20145;-78
2021/04/05 09:45:44;;;;;;;;;;;7.80;82.50;;;;;;4292497;33;37442;-78
2021/04/05 09:48:37;;;;;;;;;;;7.80;82.20;;;;;;4318464;33;20018;-79
2021/04/05 09:51:16;;;;;;;;;;;7.70;82.10;;;;;;4293559;33;20050;-78
2021/04/05 09:54:03;;;;;;;;;;;7.70;82.10;;;;;;4292860;33;19990;-78
2021/04/05 09:56:47;;;;;;;;;;;7.70;81.20;;;;;;4293239;33;20016;-78
2021/04/05 09:59:23;;;;;;;;;;;7.60;80.30;;;;;;4305513;33;20451;-78
2021/04/05 10:01:58;;;;;;;;;;;7.60;80.10;;;;;;4305405;33;20077;-78
2021/04/05 10:04:39;;;;;;;;;;;7.50;79.70;;;;;;4318461;33;20006;-78
2021/04/05 10:07:10;;;;;;;;;;;7.40;79.60;;;;;;4317292;33;20045;-78
2021/04/05 10:09:44;;;;;;;;;;;7.30;80.00;;;;;;4318428;33;20080;-78
2021/04/05 10:12:14;;;;;;;;;;;7.30;80.30;;;;;;4304297;33;44283;-78
2021/04/05 10:14:59;;;;;;;;;;;7.30;80.30;;;;;;4306140;33;36541;-77
2021/04/05 10:17:34;;;;;;;;;;;7.20;80.30;;;;;;4305899;33;20019;-78
2021/04/05 10:20:03;;;;;;;;;;;7.20;80.50;;;;;;4303750;33;43842;-77
2021/04/05 10:22:37;;;;;;;;;;;7.20;80.60;;;;;;4316647;33;42342;-77
2021/04/05 10:25:04;;;;;;;;;;;7.20;80.70;;;;;;4317181;33;39455;-77
2021/04/05 10:27:37;;;;;;;;;;;7.20;80.80;;;;;;4304113;33;36309;-78
2021/04/05 10:30:05;;;;;;;;;;;7.20;80.90;;;;;;4303270;33;45115;-77
2021/04/05 10:32:32;;;;;;;;;;;7.20;80.80;;;;;;4303974;33;43383;-77
2021/04/05 10:35:00;;;;;;;;;;;7.20;80.80;;;;;;4316633;33;43168;-77
2021/04/05 10:37:34;;;;;;;;;;;7.20;80.80;;;;;;4303019;33;43953;-78
2021/04/05 10:40:09;;;;;;;;;;;7.20;80.80;;;;;;4316925;33;37451;-77
2021/04/05 10:42:43;;;;;;;;;;;7.20;80.80;;;;;;4316483;33;42292;-78
2021/04/05 10:45:15;;;;;;;;;;;7.20;80.70;;;;;;4304507;33;20065;-78
2021/04/05 10:47:55;;;;;;;;;;;7.20;80.70;;;;;;4292134;33;20005;-78
2021/04/05 10:50:36;;;;;;;;;;;7.20;80.60;;;;;;4317660;33;20020;-77
2021/04/05 10:53:11;;;;;;;;;;;7.20;80.30;;;;;;4291828;33;19998;-77
2021/04/05 10:55:41;;;;;;;;;;;7.20;80.00;;;;;;4291992;33;20006;-78
2021/04/05 10:58:17;;;;;;;;;;;7.10;79.80;;;;;;4317124;33;20006;-77
2021/04/05 11:00:46;;;;;;;;;;;7.10;79.70;;;;;;4291899;33;20013;-77
2021/04/05 11:03:14;;;;;;;;;;;7.20;79.50;;;;;;4304178;33;20025;-77
2021/04/05 11:05:43;;;;;;;;;;;7.10;79.10;;;;;;4303578;33;20012;-77
2021/04/05 11:08:16;;;;;;;;;;;7.10;79.00;;;;;;4317180;33;20090;-77
2021/04/05 11:10:43;;;;;;;;;;;7.20;79.10;;;;;;4304481;33;20053;-76
2021/04/05 11:13:16;;;;;;;;;;;7.20;79.00;;;;;;4291933;33;20061;-77
2021/04/05 11:15:46;;;;;;;;;;;7.20;79.10;;;;;;4304306;33;20010;-77
2021/04/05 11:18:15;;;;;;;;;;;7.20;78.80;;;;;;4316995;33;20057;-77
2021/04/05 11:20:42;;;;;;;;;;;7.20;78.70;;;;;;4316975;33;20001;-77
2021/04/05 11:23:17;;;;;;;;;;;7.20;78.80;;;;;;4317539;33;20010;-77
2021/04/05 11:25:52;;;;;;;;;;;7.20;78.70;;;;;;4292486;33;20006;-77
2021/04/05 11:28:31;;;;;;;;;;;7.20;78.60;;;;;;4292005;33;20009;-77
2021/04/05 11:31:03;;;;;;;;;;;7.10;78.50;;;;;;4292153;33;20012;-77
2021/04/05 11:33:34;;;;;;;;;;;7.10;78.60;;;;;;4303924;33;20355;-77
2021/04/05 11:36:09;;;;;;;;;;;7.10;78.60;;;;;;4303463;33;20438;-77
2021/04/05 11:38:43;;;;;;;;;;;7.10;78.60;;;;;;4291972;33;19994;-77
2021/04/05 11:41:11;;;;;;;;;;;7.10;78.70;;;;;;4291954;33;20546;-77
2021/04/05 11:43:48;;;;;;;;;;;7.10;78.70;;;;;;4304316;33;20016;-77
2021/04/05 11:46:16;;;;;;;;;;;7.10;78.50;;;;;;4291919;33;19994;-77
2021/04/05 11:48:43;;;;;;;;;;;7.10;78.20;;;;;;4316367;33;20028;-77
2021/04/05 11:51:11;;;;;;;;;;;7.20;77.90;;;;;;4304103;33;20075;-77
2021/04/05 11:53:41;;;;;;;;;;;7.10;77.90;;;;;;4303463;33;20024;-78
2021/04/05 11:56:14;;;;;;;;;;;7.10;77.70;;;;;;4303109;33;20017;-77
2021/04/05 11:58:45;;;;;;;;;;;7.10;77.70;;;;;;4303740;33;20069;-77
2021/04/05 12:01:16;;;;;;;;;;;7.10;77.40;;;;;;4303374;33;21728;-77
2021/04/05 12:03:47;;;;;;;;;;;7.00;77.20;;;;;;4291071;33;19998;-77
2021/04/05 12:06:30;;;;;;;;;;;7.00;77.10;;;;;;4291932;33;20009;-78
2021/04/05 12:09:00;;;;;;;;;;;7.00;77.00;;;;;;4316813;33;20400;-77
2021/04/05 12:11:28;;;;;;;;;;;7.00;76.90;;;;;;4291596;33;20002;-77
2021/04/05 12:14:05;;;;;;;;;;;7.00;76.70;;;;;;4303436;33;20012;-77
2021/04/05 12:16:37;;;;;;;;;;;7.00;76.70;;;;;;4291878;33;19994;-78
2021/04/05 12:19:09;;;;;;;;;;;7.00;76.70;;;;;;4320160;33;20454;-77
2021/04/05 12:21:37;;;;;;;;;;;6.90;76.70;;;;;;4318574;33;34979;-78
2021/04/05 12:24:05;;;;;;;;;;;6.90;76.70;;;;;;4318795;33;39461;-77
2021/04/05 12:26:45;;;;;;;;;;;6.90;76.80;;;;;;4306172;33;20020;-77
2021/04/05 12:29:12;;;;;;;;;;;6.90;76.90;;;;;;4318510;33;43240;-77
2021/04/05 12:31:41;;;;;;;;;;;6.90;76.80;;;;;;4305080;33;44335;-77
2021/04/05 12:34:09;;;;;;;;;;;6.90;76.70;;;;;;4304976;33;43330;-77
2021/04/05 12:36:42;;;;;;;;;;;6.90;76.80;;;;;;4305073;33;33202;-77
2021/04/05 12:39:12;;;;;;;;;;;7.00;76.80;;;;;;4305865;33;28257;-77
2021/04/05 12:41:44;;;;;;;;;;;7.00;76.60;;;;;;4317768;33;43516;-77
2021/04/05 12:44:17;;;;;;;;;;;7.00;76.40;;;;;;4317517;33;23180;-77
2021/04/05 12:46:53;;;;;;;;;;;7.10;75.70;;;;;;4305015;33;43911;-77
2021/04/05 12:49:27;;;;;;;;;;;7.10;75.50;;;;;;4319451;33;20013;-77
2021/04/05 12:52:09;;;;;;;;;;;7.10;74.70;;;;;;4305705;33;20922;-77
2021/04/05 12:54:46;;;;;;;;;;;7.20;74.00;;;;;;4294426;33;20095;-77
2021/04/05 12:57:23;;;;;;;;;;;7.10;73.60;;;;;;4305601;33;23709;-77
2021/04/05 12:59:55;;;;;;;;;;;7.20;72.90;;;;;;4292732;33;44577;-77
2021/04/05 13:02:25;;;;;;;;;;;7.10;72.90;;;;;;4305081;33;31364;-77
2021/04/05 13:05:04;;;;;;;;;;;7.10;72.80;;;;;;4304634;33;46730;-77
2021/04/05 13:07:48;;;;;;;;;;;7.10;72.80;;;;;;4317639;33;42734;-77
2021/04/05 13:10:25;;;;;;;;;;;7.10;72.70;;;;;;4306278;33;20013;-77
2021/04/05 13:13:09;;;;;;;;;;;7.10;72.20;;;;;;4306016;33;20060;-77
2021/04/05 13:15:43;;;;;;;;;;;7.10;71.80;;;;;;4319383;33;20016;-77
2021/04/05 13:18:46;;;;;;;;;;;7.10;71.50;;;;;;4308581;33;20010;-77
2021/04/05 13:21:24;;;;;;;;;;;7.10;71.30;;;;;;4318955;33;20013;-77
2021/04/05 13:23:57;;;;;;;;;;;7.00;70.80;;;;;;4305797;33;20005;-77
2021/04/05 13:26:39;;;;;;;;;;;7.00;70.40;;;;;;4305732;33;20367;-77
2021/04/05 13:29:15;;;;;;;;;;;7.00;70.30;;;;;;4319063;33;20005;-77
2021/04/05 13:31:51;;;;;;;;;;;7.00;70.10;;;;;;4305497;33;20002;-77
2021/04/05 13:34:29;;;;;;;;;;;7.00;69.80;;;;;;4305535;33;20002;-77
2021/04/05 13:37:10;;;;;;;;;;;7.00;70.20;;;;;;4293819;33;20340;-77
2021/04/05 13:39:45;;;;;;;;;;;7.00;69.50;;;;;;4293031;33;20009;-77
2021/04/05 13:42:18;;;;;;;;;;;6.90;69.60;;;;;;4305764;33;20014;-77
2021/04/05 13:44:47;;;;;;;;;;;7.00;69.90;;;;;;4304108;33;20037;-77
2021/04/05 13:47:17;;;;;;;;;;;7.00;69.90;;;;;;4304168;33;44976;-77
2021/04/05 13:49:53;;;;;;;;;;;7.00;69.80;;;;;;4304005;33;37255;-77
2021/04/05 13:52:20;;;;;;;;;;;7.10;68.60;;;;;;4305401;33;20032;-77
2021/04/05 13:54:56;;;;;;;;;;;7.10;68.80;;;;;;4304191;33;43629;-77
2021/04/05 13:57:33;;;;;;;;;;;7.10;68.90;;;;;;4305274;33;20017;-77
2021/04/05 14:00:04;;;;;;;;;;;7.20;68.60;;;;;;4304975;33;20018;-77
2021/04/05 14:02:36;;;;;;;;;;;7.20;67.90;;;;;;4304857;33;20069;-77
2021/04/05 14:05:15;;;;;;;;;;;7.20;67.40;;;;;;4304013;33;20002;-77
2021/04/05 14:07:48;;;;;;;;;;;7.20;67.50;;;;;;4304438;33;42202;-77
2021/04/05 14:10:24;;;;;;;;;;;7.30;67.50;;;;;;4318515;33;20039;-76
2021/04/05 14:13:00;;;;;;;;;;;7.30;67.50;;;;;;4317907;33;20071;-77
2021/04/05 14:15:34;;;;;;;;;;;7.30;67.30;;;;;;4304717;33;19998;-77
2021/04/05 14:18:18;;;;;;;;;;;7.30;67.40;;;;;;4317250;33;37434;-76
2021/04/05 14:20:48;;;;;;;;;;;7.40;67.30;;;;;;4290454;33;44712;-76
2021/04/05 14:23:20;;;;;;;;;;;7.40;67.20;;;;;;4291609;33;44234;-76
2021/04/05 14:25:55;;;;;;;;;;;7.50;67.10;;;;;;4318098;33;20067;-76
2021/04/05 14:28:33;;;;;;;;;;;7.50;66.90;;;;;;4305352;33;20010;-76
2021/04/05 14:31:14;;;;;;;;;;;7.50;66.80;;;;;;4304361;33;20411;-76
2021/04/05 14:33:47;;;;;;;;;;;7.50;66.00;;;;;;4304534;33;20095;-76
2021/04/05 14:36:31;;;;;;;;;;;7.50;65.80;;;;;;4318127;33;20370;-76
2021/04/05 14:38:59;;;;;;;;;;;7.60;65.60;;;;;;4317747;33;20028;-76
2021/04/05 14:41:34;;;;;;;;;;;7.60;65.30;;;;;;4292069;33;20028;-76
2021/04/05 14:44:06;;;;;;;;;;;7.60;64.90;;;;;;4292458;33;20422;-76
2021/04/05 14:46:38;;;;;;;;;;;7.60;64.70;;;;;;4292041;33;20064;-76
2021/04/05 14:49:05;;;;;;;;;;;7.60;64.30;;;;;;4304323;33;20032;-76
2021/04/05 14:51:32;;;;;;;;;;;7.50;64.20;;;;;;4289998;33;20024;-76
2021/04/05 14:54:10;;;;;;;;;;;7.50;64.30;;;;;;4289461;33;44932;-76
2021/04/05 14:56:44;;;;;;;;;;;7.50;63.70;;;;;;4304667;33;20023;-76
2021/04/05 14:59:22;;;;;;;;;;;7.60;63.80;;;;;;4317874;33;20017;-76
2021/04/05 15:01:55;;;;;;;;;;;7.50;63.50;;;;;;4303609;33;36012;-76
2021/04/05 15:04:26;;;;;;;;;;;7.50;63.50;;;;;;4303416;33;31005;-76
2021/04/05 15:06:56;;;;;;;;;;;7.50;62.90;;;;;;4303735;33;19998;-76
2021/04/05 15:09:25;;;;;;;;;;;7.50;62.80;;;;;;4303168;33;43285;-76
2021/04/05 15:12:00;;;;;;;;;;;7.50;62.30;;;;;;4316440;33;40045;-76
2021/04/05 15:14:36;;;;;;;;;;;7.50;62.60;;;;;;4291899;33;27599;-76
2021/04/05 15:17:12;;;;;;;;;;;7.50;62.50;;;;;;4302880;33;40015;-76
2021/04/05 15:19:57;;;;;;;;;;;7.50;62.70;;;;;;4304285;33;20002;-76
2021/04/05 15:22:33;;;;;;;;;;;7.50;62.70;;;;;;4304156;33;20032;-77
2021/04/05 15:25:09;;;;;;;;;;;7.50;63.10;;;;;;4303637;33;33839;-77
2021/04/05 15:27:46;;;;;;;;;;;7.50;63.20;;;;;;4303223;33;44026;-77